Time;durP1;ratioP1;P1;durP2;ratioP2;P2;SDS_P1;SDS_P2;PMS_P1;PMS_P2;Temp;Humidity;BMP_temperature;BMP_pressure;BME280_temperature;BME280_humidity;BME280_pressure;Samples;Min_cycle;Max_cycle;Signal;HPM_P1;HPM_P2
2021/11/28 00:01:50;;;;;;;45.05;23.98;;;;;;;4.39;100.00;98432.38;5076231;28;20393;-77
2021/11/28 00:04:19;;;;;;;51.50;26.02;;;;;;;4.32;100.00;98436.34;5076112;28;20049;-75
2021/11/28 00:06:56;;;;;;;54.42;26.40;;;;;;;4.29;100.00;98442.69;5076454;28;20102;-75
2021/11/28 00:09:40;;;;;;;50.85;26.02;;;;;;;4.32;100.00;98433.72;5075709;28;20058;-75
2021/11/28 00:12:11;;;;;;;49.17;24.52;;;;;;;4.32;100.00;98438.97;5075187;28;20530;-75
2021/11/28 00:14:41;;;;;;;50.00;25.45;;;;;;;4.40;100.00;98436.72;5075590;28;20444;-76
2021/11/28 00:17:10;;;;;;;50.80;25.80;;;;;;;4.44;100.00;98435.59;5075151;28;20056;-75
2021/11/28 00:19:39;;;;;;;47.67;24.92;;;;;;;4.64;100.00;98422.91;5075398;28;20076;-75
2021/11/28 00:22:08;;;;;;;51.65;24.75;;;;;;;4.57;100.00;98422.44;5074653;28;20048;-75
2021/11/28 00:24:38;;;;;;;56.10;25.85;;;;;;;4.50;100.00;98421.97;5073643;28;20048;-75
2021/11/28 00:27:07;;;;;;;50.35;24.98;;;;;;;4.43;100.00;98425.94;5074865;28;20079;-79
2021/11/28 00:29:41;;;;;;;54.22;25.85;;;;;;;4.47;100.00;98422.19;5075038;28;20052;-79
2021/11/28 00:32:10;;;;;;;54.13;24.98;;;;;;;4.47;100.00;98424.81;5074416;28;20072;-80
2021/11/28 00:34:38;;;;;;;49.20;23.70;;;;;;;4.63;100.00;98414.09;5075055;28;20036;-79
2021/11/28 00:37:08;;;;;;;54.78;25.95;;;;;;;4.74;100.00;98408.16;5074808;28;20049;-80
2021/11/28 00:39:37;;;;;;;49.65;24.00;;;;;;;4.70;100.00;98391.63;5073758;28;20409;-79
2021/11/28 00:42:06;;;;;;;52.88;24.17;;;;;;;4.55;100.00;98392.66;5074263;28;20044;-79
2021/11/28 00:44:35;;;;;;;51.17;25.00;;;;;;;4.51;100.00;98401.69;5074767;28;20101;-79
2021/11/28 00:47:03;;;;;;;51.58;24.02;;;;;;;4.52;100.00;98398.94;5073883;28;20054;-79
2021/11/28 00:49:34;;;;;;;53.22;25.27;;;;;;;4.53;100.00;98405.94;5074229;28;20044;-79
2021/11/28 00:52:02;;;;;;;51.60;24.58;;;;;;;4.56;100.00;98400.47;5074286;28;20119;-78
2021/11/28 00:54:31;;;;;;;55.25;24.65;;;;;;;4.65;100.00;98393.75;5074460;28;20443;-78
2021/11/28 00:57:01;;;;;;;54.42;25.67;;;;;;;4.63;100.00;98392.13;5073410;28;20508;-79
2021/11/28 00:59:29;;;;;;;55.45;25.63;;;;;;;4.60;100.00;98401.94;5074192;28;20048;-78
2021/11/28 01:01:58;;;;;;;60.92;27.55;;;;;;;4.57;100.00;98399.50;5073648;28;20063;-78
2021/11/28 01:04:26;;;;;;;58.45;27.00;;;;;;;4.63;100.00;98398.25;5074479;28;20075;-79
2021/11/28 01:06:54;;;;;;;57.65;26.42;;;;;;;4.66;100.00;98394.59;5073870;28;20040;-79
2021/11/28 01:09:24;;;;;;;62.90;27.60;;;;;;;4.64;100.00;98391.22;5073888;28;20044;-78
2021/11/28 01:11:52;;;;;;;56.25;25.95;;;;;;;4.70;100.00;98390.78;5073962;28;20044;-79
2021/11/28 01:14:22;;;;;;;65.10;27.88;;;;;;;4.74;100.00;98395.78;5074065;28;20045;-77
2021/11/28 01:16:50;;;;;;;63.67;26.58;;;;;;;4.69;100.00;98391.72;5073732;28;20101;-78
2021/11/28 01:19:19;;;;;;;62.25;25.38;;;;;;;4.59;100.00;98389.69;5074083;28;20102;-77
2021/11/28 01:21:52;;;;;;;60.70;26.15;;;;;;;4.63;100.00;98397.41;5072609;28;20049;-78
2021/11/28 01:24:20;;;;;;;68.32;26.65;;;;;;;4.55;100.00;98392.66;5073818;28;20040;-78
2021/11/28 01:26:48;;;;;;;63.72;27.70;;;;;;;4.57;100.00;98391.59;5073858;28;20094;-78
2021/11/28 01:29:17;;;;;;;64.80;27.63;;;;;;;4.53;100.00;98400.66;5073514;28;20048;-78
2021/11/28 01:31:46;;;;;;;69.65;29.52;;;;;;;4.55;100.00;98388.22;5073454;28;20094;-78
2021/11/28 01:34:15;;;;;;;66.93;29.02;;;;;;;4.58;100.00;98393.28;5073114;28;20485;-78
2021/11/28 01:36:43;;;;;;;62.97;28.13;;;;;;;4.67;100.00;98385.72;5073391;28;20047;-78
2021/11/28 01:39:12;;;;;;;61.92;27.60;;;;;;;4.73;100.00;98385.28;5073004;28;20037;-75
2021/11/28 01:41:45;;;;;;;62.85;26.00;;;;;;;4.72;100.00;98389.72;5073845;28;20086;-75
2021/11/28 01:44:14;;;;;;;65.45;26.85;;;;;;;4.71;100.00;98376.63;5073220;28;20047;-75
2021/11/28 01:46:43;;;;;;;60.20;25.85;;;;;;;4.86;100.00;98378.25;5073556;28;20071;-74
2021/11/28 01:49:14;;;;;;;62.25;26.35;;;;;;;4.84;100.00;98372.25;5073161;28;20090;-75
2021/11/28 01:51:43;;;;;;;61.90;25.13;;;;;;;4.87;100.00;98364.94;5073518;28;20048;-75
2021/11/28 01:54:13;;;;;;;63.05;26.15;;;;;;;4.81;100.00;98380.34;5072966;28;20041;-75
2021/11/28 01:56:45;;;;;;;69.93;27.40;;;;;;;4.71;100.00;98377.47;5073399;28;20067;-74
2021/11/28 01:59:14;;;;;;;68.97;27.20;;;;;;;4.58;100.00;98377.44;5073129;28;20086;-75
2021/11/28 02:01:43;;;;;;;69.50;27.45;;;;;;;4.67;100.00;98375.16;5073389;28;20052;-75
2021/11/28 02:04:15;;;;;;;66.75;27.20;;;;;;;4.74;100.00;98377.28;5072778;28;20044;-74
2021/11/28 02:06:44;;;;;;;70.97;28.02;;;;;;;4.66;100.00;98378.75;5072399;28;20478;-75
2021/11/28 02:09:13;;;;;;;62.00;27.75;;;;;;;4.59;100.00;98380.94;5072861;28;20048;-74
2021/11/28 02:11:46;;;;;;;68.90;28.50;;;;;;;4.58;100.00;98382.72;5073110;28;20063;-75
2021/11/28 02:14:15;;;;;;;64.10;28.00;;;;;;;4.60;100.00;98375.53;5071842;28;20114;-74
2021/11/28 02:16:43;;;;;;;66.22;28.10;;;;;;;4.65;100.00;98369.97;5073230;28;20055;-74
2021/11/28 02:19:13;;;;;;;62.60;26.85;;;;;;;4.65;100.00;98375.25;5072803;28;20052;-80
2021/11/28 02:21:43;;;;;;;67.45;27.45;;;;;;;4.62;100.00;98372.78;5072801;28;20390;-78
2021/11/28 02:24:11;;;;;;;60.13;26.77;;;;;;;4.65;100.00;98366.50;5072382;28;20056;-78
2021/11/28 02:26:39;;;;;;;58.28;27.05;;;;;;;4.48;100.00;98372.88;5073069;28;20040;-77
2021/11/28 02:29:08;;;;;;;63.83;27.92;;;;;;;4.56;100.00;98367.94;5072769;28;20386;-80
2021/11/28 02:31:36;;;;;;;59.53;26.27;;;;;;;4.64;100.00;98370.09;5072982;28;20049;-79
2021/11/28 02:34:06;;;;;;;57.40;26.23;;;;;;;4.57;100.00;98373.13;5072428;28;20041;-79
2021/11/28 02:36:34;;;;;;;63.05;27.17;;;;;;;4.59;100.00;98368.56;5071788;28;20044;-80
2021/11/28 02:39:04;;;;;;;69.88;28.90;;;;;;;4.62;100.00;98366.66;5072350;28;20044;-79
2021/11/28 02:41:33;;;;;;;68.70;27.88;;;;;;;4.51;100.00;98360.28;5073248;28;20048;-78
2021/11/28 02:44:01;;;;;;;68.07;29.30;;;;;;;4.58;100.00;98366.88;5072658;28;20052;-78
2021/11/28 02:46:29;;;;;;;69.25;28.92;;;;;;;4.51;100.00;98360.28;5071722;28;20068;-75
2021/11/28 02:48:58;;;;;;;71.85;29.25;;;;;;;4.52;100.00;98351.44;5072830;28;20048;-75
2021/11/28 02:51:26;;;;;;;79.43;29.42;;;;;;;4.46;100.00;98361.56;5072850;28;20401;-77
2021/11/28 02:53:55;;;;;;;73.43;27.88;;;;;;;4.53;100.00;98358.41;5072441;28;20094;-77
2021/11/28 02:56:24;;;;;;;70.90;28.33;;;;;;;4.57;100.00;98354.63;5072465;28;20102;-78
2021/11/28 02:58:52;;;;;;;78.97;29.08;;;;;;;4.41;100.00;98359.22;5072789;28;20127;-77
2021/11/28 03:01:23;;;;;;;74.00;28.95;;;;;;;4.47;100.00;98357.97;5072330;28;20504;-77
2021/11/28 03:03:53;;;;;;;74.68;29.42;;;;;;;4.48;100.00;98357.03;5072735;28;20040;-78
2021/11/28 03:06:22;;;;;;;70.97;30.10;;;;;;;4.35;100.00;98356.97;5072232;28;20060;-77
2021/11/28 03:08:50;;;;;;;73.75;29.52;;;;;;;4.38;100.00;98354.13;5072638;28;20548;-77
2021/11/28 03:11:18;;;;;;;78.30;29.55;;;;;;;4.38;100.00;98356.78;5072280;28;20041;-77
2021/11/28 03:13:51;;;;;;;74.03;29.20;;;;;;;4.32;100.00;98349.25;5072277;28;20048;-77
2021/11/28 03:16:21;;;;;;;75.75;29.92;;;;;;;4.47;100.00;98353.53;5072472;28;20045;-77
2021/11/28 03:18:50;;;;;;;71.15;29.10;;;;;;;4.46;100.00;98357.13;5074434;28;20068;-77
2021/11/28 03:21:21;;;;;;;70.88;29.40;;;;;;;4.48;100.00;98360.50;5075938;28;20072;-78
2021/11/28 03:23:52;;;;;;;85.13;31.25;;;;;;;4.41;100.00;98366.28;5076045;28;20040;-78
2021/11/28 03:26:25;;;;;;;76.72;30.08;;;;;;;4.47;100.00;98366.75;5075859;28;20037;-78
2021/11/28 03:28:56;;;;;;;79.47;29.83;;;;;;;4.63;100.00;98357.78;5076474;28;20044;-78
2021/11/28 03:31:27;;;;;;;77.95;28.70;;;;;;;4.45;100.00;98360.72;5075552;28;20098;-78
2021/11/28 03:33:56;;;;;;;84.05;31.38;;;;;;;4.39;100.00;98355.81;5075786;28;20046;-78
2021/11/28 03:36:27;;;;;;;85.72;29.83;;;;;;;4.38;100.00;98355.94;5075718;28;20037;-79
2021/11/28 03:38:57;;;;;;;87.47;30.73;;;;;;;4.45;100.00;98350.16;5076060;28;20044;-79
2021/11/28 03:41:28;;;;;;;81.32;30.33;;;;;;;4.47;100.00;98350.91;5075629;28;20098;-79
2021/11/28 03:43:58;;;;;;;84.82;31.88;;;;;;;4.35;100.00;98343.78;5076147;28;20045;-79
2021/11/28 03:46:28;;;;;;;83.65;30.42;;;;;;;4.36;100.00;98340.19;5075564;28;20150;-79
2021/11/28 03:48:58;;;;;;;78.72;29.55;;;;;;;4.38;100.00;98343.56;5075050;28;20102;-78
2021/11/28 03:51:27;;;;;;;83.15;31.27;;;;;;;4.38;100.00;98348.84;5075162;28;20052;-79
2021/11/28 03:53:55;;;;;;;92.93;30.40;;;;;;;4.46;100.00;98351.84;5075302;28;20106;-78
2021/11/28 03:56:24;;;;;;;79.70;29.45;;;;;;;4.52;100.00;98345.31;5075304;28;20049;-80
2021/11/28 03:58:53;;;;;;;83.80;29.75;;;;;;;4.43;100.00;98345.91;5075380;28;20041;-78
2021/11/28 04:01:24;;;;;;;85.35;29.90;;;;;;;4.45;100.00;98336.13;5075236;28;20048;-77
2021/11/28 04:03:52;;;;;;;87.20;30.83;;;;;;;4.37;100.00;98341.03;5075757;28;20075;-78
2021/11/28 04:06:22;;;;;;;89.97;30.65;;;;;;;4.49;100.00;98341.06;5075112;28;20041;-78
2021/11/28 04:08:51;;;;;;;97.30;32.65;;;;;;;4.44;100.00;98337.03;5075292;28;20089;-77
2021/11/28 04:11:19;;;;;;;95.25;32.28;;;;;;;4.49;100.00;98335.78;5074726;28;20048;-77
2021/11/28 04:13:48;;;;;;;92.38;32.67;;;;;;;4.35;100.00;98338.50;5075013;28;20040;-77
2021/11/28 04:16:16;;;;;;;95.72;31.77;;;;;;;4.41;100.00;98338.09;5075009;28;20055;-77
2021/11/28 04:18:46;;;;;;;98.90;32.75;;;;;;;4.38;100.00;98333.03;5074943;28;20044;-77
2021/11/28 04:21:14;;;;;;;93.28;33.63;;;;;;;4.36;100.00;98340.19;5074838;28;20045;-77
2021/11/28 04:23:42;;;;;;;100.90;33.15;;;;;;;4.38;100.00;98321.63;5074912;28;20397;-78
2021/11/28 04:26:11;;;;;;;92.55;32.08;;;;;;;4.52;100.00;98332.94;5074407;28;20056;-78
2021/11/28 04:28:39;;;;;;;88.80;30.25;;;;;;;4.54;100.00;98322.31;5074985;28;20413;-78
2021/11/28 04:31:07;;;;;;;93.05;31.98;;;;;;;4.56;100.00;98321.25;5073636;28;20044;-78
2021/11/28 04:33:36;;;;;;;94.70;33.65;;;;;;;4.42;100.00;98323.94;5074971;28;20086;-77
2021/11/28 04:36:05;;;;;;;88.82;31.63;;;;;;;4.62;100.00;98324.41;5074882;28;20036;-77
2021/11/28 04:38:35;;;;;;;98.07;31.83;;;;;;;4.58;100.00;98319.34;5074727;28;20076;-77
2021/11/28 04:41:03;;;;;;;86.13;31.38;;;;;;;4.62;100.00;98321.78;5074784;28;20045;-78
2021/11/28 04:43:31;;;;;;;86.20;29.88;;;;;;;4.57;100.00;98333.50;5074827;28;20052;-78
2021/11/28 04:45:59;;;;;;;89.38;32.30;;;;;;;4.44;100.00;98327.34;5074758;28;20044;-77
2021/11/28 04:48:29;;;;;;;83.75;30.27;;;;;;;4.43;100.00;98330.91;5073012;28;20056;-78
2021/11/28 04:50:57;;;;;;;89.82;32.50;;;;;;;4.52;100.00;98332.09;5074333;28;20047;-78
2021/11/28 04:53:27;;;;;;;87.45;29.95;;;;;;;4.74;100.00;98332.38;5073981;28;20045;-81
2021/11/28 04:55:55;;;;;;;88.45;29.17;;;;;;;4.58;100.00;98324.63;5074108;28;20489;-81
2021/11/28 04:58:23;;;;;;;89.57;30.50;;;;;;;4.64;100.00;98320.75;5074154;28;20036;-81
2021/11/28 05:00:52;;;;;;;88.88;29.63;;;;;;;4.74;100.00;98307.78;5074081;28;20064;-80
2021/11/28 05:03:20;;;;;;;82.65;30.85;;;;;;;4.60;100.00;98317.44;5074106;28;20525;-79
2021/11/28 05:05:48;;;;;;;107.65;32.95;;;;;;;4.53;100.00;98316.16;5074379;28;20040;-78
2021/11/28 05:08:17;;;;;;;92.72;29.92;;;;;;;4.58;100.00;98314.06;5073851;28;20041;-77
2021/11/28 05:10:46;;;;;;;96.80;31.50;;;;;;;4.54;100.00;98317.88;5073951;28;20050;-78
2021/11/28 05:13:15;;;;;;;99.57;31.77;;;;;;;4.53;100.00;98324.06;5073774;28;20041;-77
2021/11/28 05:15:43;;;;;;;94.55;32.20;;;;;;;4.64;100.00;98317.25;5074085;28;20481;-77
2021/11/28 05:18:11;;;;;;;90.63;31.85;;;;;;;4.59;100.00;98326.31;5072269;28;20395;-79
2021/11/28 05:20:39;;;;;;;101.47;32.20;;;;;;;4.59;100.00;98325.47;5073971;28;20041;-78
2021/11/28 05:23:08;;;;;;;97.35;32.78;;;;;;;4.54;100.00;98322.31;5074033;28;20547;-78
2021/11/28 05:25:37;;;;;;;107.10;33.55;;;;;;;4.54;100.00;98323.16;5073483;28;20044;-79
2021/11/28 05:28:08;;;;;;;100.75;31.40;;;;;;;4.53;100.00;98315.31;5072715;28;20049;-79
2021/11/28 05:30:37;;;;;;;91.65;31.63;;;;;;;4.57;100.00;98309.75;5073810;28;20059;-79
2021/11/28 05:33:07;;;;;;;94.72;31.58;;;;;;;4.54;100.00;98307.31;5073951;28;20040;-80
2021/11/28 05:35:35;;;;;;;95.28;31.05;;;;;;;4.63;100.00;98310.25;5073426;28;20131;-79
2021/11/28 05:38:04;;;;;;;95.03;31.52;;;;;;;4.59;100.00;98299.91;5073760;28;20102;-79
2021/11/28 05:40:32;;;;;;;89.03;29.95;;;;;;;4.52;100.00;98309.19;5073278;28;20048;-78
2021/11/28 05:43:01;;;;;;;97.13;32.58;;;;;;;4.48;100.00;98317.41;5073571;28;20060;-81
2021/11/28 05:45:30;;;;;;;102.47;32.50;;;;;;;4.47;100.00;98302.53;5073184;28;20045;-81
2021/11/28 05:47:59;;;;;;;98.68;31.70;;;;;;;4.59;100.00;98296.44;5073196;28;20127;-84
2021/11/28 05:50:30;;;;;;;91.97;32.58;;;;;;;4.45;100.00;98307.91;5072907;28;20048;-79
2021/11/28 05:52:59;;;;;;;96.03;31.27;;;;;;;4.50;100.00;98311.09;5073922;28;20091;-79
2021/11/28 05:55:28;;;;;;;85.35;30.75;;;;;;;4.65;100.00;98300.47;5073161;28;20481;-79
2021/11/28 05:57:57;;;;;;;87.55;31.05;;;;;;;4.60;100.00;98312.16;5073561;28;20098;-81
2021/11/28 06:00:26;;;;;;;96.65;31.27;;;;;;;4.57;100.00;98309.75;5072816;28;20048;-82
2021/11/28 06:02:57;;;;;;;90.03;31.80;;;;;;;4.56;100.00;98301.91;5073339;28;20048;-82
2021/11/28 06:05:25;;;;;;;98.18;31.33;;;;;;;4.60;100.00;98314.81;5073179;28;20071;-75
2021/11/28 06:07:53;;;;;;;86.80;28.70;;;;;;;4.75;100.00;98320.03;5073345;28;20071;-75
2021/11/28 06:10:21;;;;;;;91.93;30.25;;;;;;;4.65;100.00;98303.09;5072935;28;20128;-75
2021/11/28 06:12:50;;;;;;;94.80;30.98;;;;;;;4.64;100.00;98311.97;5073226;28;20066;-75
2021/11/28 06:15:18;;;;;;;98.35;32.45;;;;;;;4.55;100.00;98327.47;5072999;28;20041;-74
2021/11/28 06:17:46;;;;;;;98.68;31.10;;;;;;;4.66;100.00;98325.91;5073257;28;20044;-73
2021/11/28 06:20:16;;;;;;;113.40;34.08;;;;;;;4.62;100.00;98335.81;5072556;28;20056;-74
2021/11/28 06:22:44;;;;;;;95.43;30.80;;;;;;;4.64;100.00;98343.66;5073254;28;20041;-73
2021/11/28 06:25:12;;;;;;;99.72;31.70;;;;;;;4.59;100.00;98342.16;5072743;28;20041;-77
2021/11/28 06:28:01;;;;;;;89.43;30.17;;;;;;;4.69;100.00;98323.06;5072857;28;20120;-76
2021/11/28 06:30:30;;;;;;;94.70;29.27;;;;;;;4.73;100.00;98309.56;5072464;28;20041;-77
2021/11/28 06:32:59;;;;;;;99.13;32.20;;;;;;;4.54;100.00;98325.78;5072772;28;20461;-77
2021/11/28 06:35:29;;;;;;;112.47;29.00;;;;;;;4.66;100.00;98325.91;5072476;28;20051;-77
2021/11/28 06:37:58;;;;;;;121.45;29.20;;;;;;;4.80;100.00;98317.91;5073082;28;20113;-77
2021/11/28 06:40:26;;;;;;;150.48;32.05;;;;;;;4.68;100.00;98318.75;5072707;28;20090;-77
2021/11/28 06:42:55;;;;;;;115.97;33.33;;;;;;;4.67;100.00;98319.69;5072634;28;20462;-79
2021/11/28 06:45:23;;;;;;;128.73;33.88;;;;;;;4.58;100.00;98316.72;5072609;28;20045;-78
2021/11/28 06:47:51;;;;;;;125.70;33.33;;;;;;;4.53;100.00;98324.06;5072961;28;20037;-80
2021/11/28 06:50:19;;;;;;;163.25;35.05;;;;;;;4.44;100.00;98315.91;5073063;28;20045;-80
2021/11/28 06:52:49;;;;;;;116.75;35.10;;;;;;;4.51;100.00;98331.25;5072864;28;20041;-80
2021/11/28 06:55:17;;;;;;;106.53;33.15;;;;;;;4.54;100.00;98341.63;5076696;28;20046;-80
2021/11/28 06:57:46;;;;;;;121.93;35.78;;;;;;;4.56;100.00;98333.59;5076716;28;20055;-80
2021/11/28 07:00:17;;;;;;;93.25;30.67;;;;;;;4.82;100.00;98321.28;5076612;28;20099;-79
2021/11/28 07:02:45;;;;;;;97.47;33.70;;;;;;;4.76;100.00;98322.56;5077049;28;20474;-78
2021/11/28 07:05:13;;;;;;;99.72;32.67;;;;;;;4.92;100.00;98317.06;5075491;28;20378;-78
2021/11/28 07:07:42;;;;;;;95.43;31.52;;;;;;;4.90;100.00;98321.63;5076554;28;20110;-79
2021/11/28 07:10:12;;;;;;;94.88;31.42;;;;;;;4.99;100.00;98315.72;5076162;28;20493;-80
2021/11/28 07:12:40;;;;;;;114.63;33.00;;;;;;;5.01;100.00;98310.31;5076393;28;20032;-80
2021/11/28 07:15:09;;;;;;;99.28;32.72;;;;;;;5.11;100.00;98306.94;5076191;28;20048;-81
2021/11/28 07:17:38;;;;;;;104.97;30.85;;;;;;;5.08;100.00;98303.66;5076124;28;20044;-78
2021/11/28 07:20:08;;;;;;;87.28;29.20;;;;;;;5.17;100.00;98287.19;5075990;28;20036;-83
2021/11/28 07:22:38;;;;;;;87.25;28.35;;;;;;;5.24;100.00;98288.47;5076153;28;20232;-83
2021/11/28 07:25:07;;;;;;;97.65;27.45;;;;;;;5.26;100.00;98294.47;5075791;28;20127;-83
2021/11/28 07:27:37;;;;;;;104.65;26.70;;;;;;;5.34;100.00;98281.56;5075613;28;20044;-82
2021/11/28 07:30:08;;;;;;;94.22;26.60;;;;;;;5.50;100.00;98285.75;5076046;28;20401;-83
2021/11/28 07:32:37;;;;;;;81.22;25.83;;;;;;;5.41;100.00;98288.13;5075799;28;20040;-79
2021/11/28 07:35:06;;;;;;;87.72;24.73;;;;;;;5.46;100.00;98291.28;5076019;28;20071;-80
2021/11/28 07:37:35;;;;;;;83.13;25.63;;;;;;;5.51;100.00;98300.72;5075367;28;20047;-80
2021/11/28 07:40:04;;;;;;;91.80;24.45;;;;;;;5.56;100.00;98293.28;5075956;28;20468;-80
2021/11/28 07:42:33;;;;;;;75.13;23.40;;;;;;;5.63;100.00;98287.44;5075901;28;20055;-78
2021/11/28 07:45:04;;;;;;;88.88;24.65;;;;;;;5.66;100.00;98294.31;5075609;28;20109;-77
2021/11/28 07:47:32;;;;;;;103.95;25.13;;;;;;;5.59;100.00;98285.97;5075334;28;20120;-78
2021/11/28 07:50:01;;;;;;;79.03;23.10;;;;;;;5.66;100.00;98284.56;5075415;28;20040;-76
2021/11/28 07:52:30;;;;;;;62.53;22.48;;;;;;;5.72;100.00;98281.50;5075441;28;20068;-74
2021/11/28 07:54:58;;;;;;;65.63;22.45;;;;;;;5.84;100.00;98284.22;5075757;28;20091;-74
2021/11/28 07:57:26;;;;;;;63.47;22.65;;;;;;;6.01;100.00;98281.25;5075003;28;20049;-75
2021/11/28 07:59:55;;;;;;;61.55;21.70;;;;;;;5.96;100.00;98278.91;5074410;28;20052;-74
2021/11/28 08:02:24;;;;;;;55.95;21.65;;;;;;;5.96;100.00;98263.03;5073908;28;20053;-75
2021/11/28 08:04:53;;;;;;;60.80;21.85;;;;;;;5.98;100.00;98260.28;5074515;28;20083;-76
2021/11/28 08:07:21;;;;;;;55.28;20.20;;;;;;;5.92;100.00;98266.88;5075188;28;20048;-81
2021/11/28 08:09:50;;;;;;;55.95;20.92;;;;;;;5.96;100.00;98265.69;5075298;28;20462;-75
2021/11/28 08:12:18;;;;;;;52.25;17.95;;;;;;;5.98;100.00;98260.28;5075309;28;20047;-74
2021/11/28 08:14:47;;;;;;;54.92;17.52;;;;;;;5.99;100.00;98254.06;5075015;28;20072;-77
2021/11/28 08:17:15;;;;;;;43.17;16.23;;;;;;;6.11;100.00;98255.78;5075013;28;20072;-76
2021/11/28 08:19:45;;;;;;;33.80;16.48;;;;;;;5.98;100.00;98247.91;5074595;28;20048;-76
2021/11/28 08:22:13;;;;;;;41.70;16.77;;;;;;;5.99;100.00;98246.09;5075095;28;20052;-77
2021/11/28 08:24:41;;;;;;;42.25;15.45;;;;;;;5.99;100.00;98240.81;5074367;28;20044;-74
2021/11/28 08:27:10;;;;;;;31.17;14.73;;;;;;;6.11;100.00;98249.66;5079871;28;20485;-75
2021/11/28 08:29:38;;;;;;;35.58;15.43;;;;;;;6.13;100.00;98226.56;5074921;28;20041;-73
2021/11/28 08:32:07;;;;;;;33.55;15.73;;;;;;;6.12;100.00;98207.19;5075053;28;20041;-71
2021/11/28 08:34:36;;;;;;;31.77;14.82;;;;;;;6.18;100.00;98217.31;5074636;28;20121;-79
2021/11/28 08:37:06;;;;;;;29.27;13.90;;;;;;;6.14;100.00;98226.44;5073589;28;20052;-76
2021/11/28 08:39:35;;;;;;;29.40;14.02;;;;;;;6.21;100.00;98221.53;5074604;28;20474;-76
2021/11/28 08:42:07;;;;;;;30.75;14.60;;;;;;;6.29;100.00;98211.22;5074422;28;20048;-74
2021/11/28 08:44:38;;;;;;;28.63;13.77;;;;;;;6.23;100.00;98207.22;5074286;28;20135;-75
2021/11/28 08:47:07;;;;;;;27.90;12.45;;;;;;;6.27;100.00;98207.81;5074713;28;20048;-75
2021/11/28 08:49:36;;;;;;;29.55;13.73;;;;;;;6.41;100.00;98220.88;5074328;28;20136;-74
2021/11/28 08:52:06;;;;;;;30.92;13.98;;;;;;;6.46;100.00;98226.66;5074512;28;20067;-71
2021/11/28 08:54:34;;;;;;;30.70;14.35;;;;;;;6.56;100.00;98235.63;5074470;28;20076;-77
2021/11/28 08:57:04;;;;;;;27.50;13.23;;;;;;;6.66;100.00;98230.47;5074143;28;20051;-75
2021/11/28 08:59:32;;;;;;;25.02;12.65;;;;;;;6.58;100.00;98230.22;5074003;28;20046;-73
2021/11/28 09:02:00;;;;;;;29.85;14.05;;;;;;;6.64;100.00;98224.44;5074390;28;20560;-74
2021/11/28 09:04:29;;;;;;;26.85;12.80;;;;;;;6.76;100.00;98207.63;5073874;28;20482;-72
2021/11/28 09:06:57;;;;;;;26.20;11.75;;;;;;;6.81;100.00;98212.56;5074232;28;20063;-72
2021/11/28 09:09:28;;;;;;;23.70;12.27;;;;;;;6.87;100.00;98206.78;5074031;28;20094;-76
2021/11/28 09:11:56;;;;;;;22.13;11.52;;;;;;;6.92;100.00;98209.06;5073951;28;20043;-72
2021/11/28 09:14:26;;;;;;;21.58;10.68;;;;;;;6.92;100.00;98219.66;5073712;28;20071;-73
2021/11/28 09:16:54;;;;;;;22.10;11.50;;;;;;;6.83;100.00;98218.56;5073681;28;20044;-73
2021/11/28 09:19:27;;;;;;;21.55;10.77;;;;;;;6.85;100.00;98206.03;5073944;28;20071;-78
2021/11/28 09:21:55;;;;;;;20.48;10.57;;;;;;;6.99;100.00;98210.28;5073939;28;20405;-72
2021/11/28 09:24:38;;;;;;;22.45;12.00;;;;;;;7.18;100.00;98208.72;5073693;28;20048;-73
2021/11/28 09:27:12;;;;;;;19.90;10.23;;;;;;;7.25;100.00;98198.50;5073667;28;20033;-74
2021/11/28 09:29:42;;;;;;;20.42;10.60;;;;;;;7.32;100.00;98199.66;5072279;28;20056;-75
2021/11/28 09:32:18;;;;;;;19.48;10.68;;;;;;;7.37;100.00;98194.84;5076452;28;20041;-75
2021/11/28 09:34:48;;;;;;;18.20;9.68;;;;;;;7.40;100.00;98194.59;5072094;28;20045;-77
2021/11/28 09:37:17;;;;;;;18.17;10.52;;;;;;;7.36;100.00;98194.97;5070151;28;20036;-77
2021/11/28 09:39:46;;;;;;;18.23;10.10;;;;;;;7.47;100.00;98203.75;5072835;28;20045;-75
2021/11/28 09:42:22;;;;;;;18.92;10.02;;;;;;;7.54;100.00;98204.13;5072766;28;20428;-77
2021/11/28 09:44:50;;;;;;;24.27;10.05;;;;;;;7.56;100.00;98196.88;5072523;28;20553;-74
2021/11/28 09:47:19;;;;;;;21.00;11.30;;;;;;;7.68;100.00;98198.53;5071183;28;20478;-75
2021/11/28 09:49:47;;;;;;;19.35;10.00;;;;;;;7.84;100.00;98199.97;5071999;28;20498;-74
2021/11/28 09:52:21;;;;;;;20.38;10.55;;;;;;;8.09;100.00;98180.19;5072076;28;20516;-77
2021/11/28 09:54:52;;;;;;;19.35;10.18;;;;;;;8.01;100.00;98181.69;5072156;28;20040;-76
2021/11/28 09:57:22;;;;;;;18.17;10.35;;;;;;;8.07;100.00;98177.66;5071778;28;20052;-81
2021/11/28 09:59:53;;;;;;;19.75;11.52;;;;;;;8.07;100.00;98160.91;5072354;28;20123;-78
2021/11/28 10:02:23;;;;;;;20.50;10.77;;;;;;;8.04;100.00;98154.03;5072064;28;20057;-77
2021/11/28 10:04:54;;;;;;;21.40;11.25;;;;;;;8.07;100.00;98143.16;5071658;28;20477;-76
2021/11/28 10:07:23;;;;;;;20.55;11.68;;;;;;;8.13;100.00;98139.16;5072067;28;20087;-76
2021/11/28 10:09:52;;;;;;;20.25;11.05;;;;;;;8.02;100.00;98143.53;5071770;28;20094;-75
2021/11/28 10:12:24;;;;;;;20.98;11.73;;;;;;;8.17;100.00;98127.28;5071959;28;20045;-75
2021/11/28 10:14:55;;;;;;;19.83;10.93;;;;;;;8.27;100.00;98126.38;5071991;28;20062;-78
2021/11/28 10:17:27;;;;;;;20.33;11.20;;;;;;;8.46;100.00;98120.38;5071615;28;20075;-78
2021/11/28 10:19:56;;;;;;;21.50;11.25;;;;;;;8.53;100.00;98118.91;5072162;28;20131;-81
2021/11/28 10:22:25;;;;;;;17.98;10.35;;;;;;;8.55;100.00;98103.66;5072110;28;20106;-77
2021/11/28 10:25:03;;;;;;;19.23;11.02;;;;;;;8.50;100.00;98099.72;5071105;28;20119;-78
2021/11/28 10:27:35;;;;;;;17.90;10.18;;;;;;;8.48;100.00;98102.50;5071185;28;20072;-71
2021/11/28 10:30:05;;;;;;;20.77;10.63;;;;;;;8.55;100.00;98093.03;5071455;28;20041;-72
2021/11/28 10:32:35;;;;;;;20.90;10.88;;;;;;;8.50;100.00;98078.47;5072353;28;20041;-71
2021/11/28 10:35:10;;;;;;;21.88;11.35;;;;;;;8.42;100.00;98081.78;5071229;28;20055;-72
2021/11/28 10:37:43;;;;;;;18.67;10.88;;;;;;;8.49;100.00;98082.94;5071995;28;20047;-76
2021/11/28 10:40:13;;;;;;;21.23;10.63;;;;;;;8.57;100.00;98066.31;5071647;28;20047;-76
2021/11/28 10:42:48;;;;;;;19.13;10.82;;;;;;;8.56;100.00;98077.94;5071962;28;20052;-76
2021/11/28 10:45:17;;;;;;;18.60;10.18;;;;;;;8.73;100.00;98065.84;5072015;28;20049;-75
2021/11/28 10:47:48;;;;;;;18.50;10.15;;;;;;;8.94;100.00;98053.31;5071614;28;20457;-76
2021/11/28 10:50:22;;;;;;;17.00;10.18;;;;;;;9.23;100.00;98045.41;5071535;28;20040;-74
2021/11/28 10:52:53;;;;;;;15.80;9.40;;;;;;;9.45;100.00;98044.31;5071070;28;20051;-75
2021/11/28 10:55:27;;;;;;;17.35;9.90;;;;;;;9.45;100.00;98033.66;5071857;28;20106;-75
2021/11/28 10:58:13;;;;;;;17.15;10.27;;;;;;;9.39;100.00;98037.75;5072569;28;20581;-76
2021/11/28 11:01:02;;;;;;;20.35;11.65;;;;;;;9.30;100.00;98025.28;5071867;28;20079;-73
2021/11/28 11:03:34;;;;;;;19.58;11.85;;;;;;;9.24;100.00;98024.97;5069888;28;20404;-72
2021/11/28 11:06:16;;;;;;;20.02;11.23;;;;;;;9.11;100.00;98026.06;5072061;28;20083;-73
2021/11/28 11:08:45;;;;;;;19.23;12.25;;;;;;;8.97;100.00;98039.75;5072150;28;20075;-72
2021/11/28 11:11:17;;;;;;;21.17;12.52;;;;;;;8.96;100.00;98032.75;5071710;28;20040;-72
2021/11/28 11:14:00;;;;;;;21.13;13.20;;;;;;;9.17;100.00;98025.53;5071850;28;20102;-72
2021/11/28 11:16:34;;;;;;;22.13;12.27;;;;;;;9.19;100.00;98022.75;5072538;28;20055;-72
2021/11/28 11:19:28;;;;;;;20.80;12.30;;;;;;;9.36;100.00;98035.38;5072118;28;20097;-72
2021/11/28 11:22:05;;;;;;;18.98;12.00;;;;;;;9.41;100.00;98025.13;5072509;28;20123;-71
2021/11/28 11:24:35;;;;;;;20.30;13.02;;;;;;;9.42;100.00;98028.63;5072787;28;20442;-72
2021/11/28 11:27:09;;;;;;;21.88;13.23;;;;;;;9.51;100.00;98025.16;5072687;28;20102;-71
2021/11/28 11:29:44;;;;;;;21.02;12.05;;;;;;;9.47;100.00;98010.44;5072710;28;20083;-71